createdAt,value
2022-11-25T00:01:32.914Z,28.27
2022-11-25T00:04:01.687Z,28.40
2022-11-25T00:06:32.083Z,28.73
2022-11-25T00:09:03.325Z,29.47
2022-11-25T00:11:35.136Z,29.90
2022-11-25T00:14:03.858Z,29.47
2022-11-25T00:16:32.442Z,29.47
2022-11-25T00:19:01.197Z,30.60
2022-11-25T00:21:32.503Z,29.87
2022-11-25T00:24:02.713Z,27.43
2022-11-25T00:26:33.860Z,27.67
2022-11-25T00:29:07.678Z,28.43
2022-11-25T00:31:39.632Z,28.60
2022-11-25T00:34:08.608Z,28.80
2022-11-25T00:36:38.888Z,26.97
2022-11-25T00:39:10.709Z,28.17
2022-11-25T00:41:58.631Z,27.30
2022-11-25T00:44:41.126Z,27.13
2022-11-25T00:47:13.377Z,25.27
2022-11-25T00:49:46.161Z,25.13
2022-11-25T00:52:16.389Z,23.73
2022-11-25T00:54:45.924Z,25.73
2022-11-25T00:57:17.090Z,24.67
2022-11-25T00:59:45.629Z,24.43
2022-11-25T01:02:16.113Z,26.30
2022-11-25T01:04:46.068Z,24.90
2022-11-25T01:07:17.524Z,24.50
2022-11-25T01:09:46.180Z,25.33
2022-11-25T01:12:16.081Z,23.90
2022-11-25T01:14:44.572Z,23.90
2022-11-25T01:17:15.865Z,23.90
2022-11-25T01:19:44.377Z,23.80
2022-11-25T01:22:12.876Z,24.40
2022-11-25T01:24:44.297Z,22.73
2022-11-25T01:27:12.708Z,22.83
2022-11-25T01:29:43.100Z,23.83
2022-11-25T01:32:11.499Z,22.77
2022-11-25T01:34:40.375Z,25.50
2022-11-25T01:37:08.817Z,27.07
2022-11-25T01:39:38.837Z,26.23
2022-11-25T01:42:07.338Z,25.90
2022-11-25T01:44:40.217Z,26.03
2022-11-25T01:47:14.880Z,26.60
2022-11-25T01:49:47.766Z,27.43
2022-11-25T01:52:22.433Z,26.93
2022-11-25T01:54:55.338Z,27.10
2022-11-25T01:57:29.378Z,26.60
2022-11-25T02:00:01.877Z,29.03
2022-11-25T02:02:34.168Z,27.80
2022-11-25T02:05:04.546Z,27.27
2022-11-25T02:07:36.541Z,27.77
2022-11-25T02:10:08.597Z,30.30
2022-11-25T02:12:40.027Z,31.07
2022-11-25T02:15:09.664Z,31.93
2022-11-25T02:17:40.988Z,29.40
2022-11-25T02:20:12.258Z,31.80
2022-11-25T02:22:55.832Z,30.63
2022-11-25T02:25:28.026Z,30.77
2022-11-25T02:28:02.719Z,30.23
2022-11-25T02:30:31.250Z,29.53
2022-11-25T02:33:01.670Z,28.97
2022-11-25T02:35:35.969Z,28.93
2022-11-25T02:38:09.042Z,28.33
2022-11-25T02:40:45.671Z,26.33
2022-11-25T02:43:14.736Z,27.40
2022-11-25T02:45:56.546Z,24.70
2022-11-25T02:48:45.794Z,25.13
2022-11-25T02:51:16.163Z,23.03
2022-11-25T02:53:44.967Z,22.33
2022-11-25T02:56:16.028Z,24.93
2022-11-25T02:58:44.461Z,23.43
2022-11-25T03:01:12.966Z,23.30
2022-11-25T03:03:41.413Z,24.80
2022-11-25T03:06:10.099Z,23.10
2022-11-25T03:08:39.482Z,23.90
2022-11-25T03:11:10.911Z,23.40
2022-11-25T03:13:41.426Z,27.63
2022-11-25T03:16:10.780Z,26.77
2022-11-25T03:18:39.343Z,25.97
2022-11-25T03:21:08.460Z,26.70
2022-11-25T03:23:36.860Z,27.53
2022-11-25T03:26:07.339Z,26.63
2022-11-25T03:28:36.151Z,31.13
2022-11-25T03:31:05.911Z,29.27
2022-11-25T03:33:34.288Z,26.80
2022-11-25T03:36:02.584Z,27.47
2022-11-25T03:38:30.931Z,27.43
2022-11-25T03:40:59.221Z,26.87
2022-11-25T03:43:27.603Z,27.40
2022-11-25T03:45:55.943Z,26.10
2022-11-25T03:48:25.679Z,26.70
2022-11-25T03:50:54.185Z,24.57
2022-11-25T03:53:27.342Z,26.43
2022-11-25T03:55:55.751Z,25.03
2022-11-25T03:58:26.762Z,25.80
2022-11-25T04:00:56.277Z,28.03
2022-11-25T04:03:25.973Z,24.27
2022-11-25T04:05:54.262Z,25.57
2022-11-25T04:08:22.713Z,23.90
2022-11-25T04:10:52.410Z,22.93
2022-11-25T04:13:23.809Z,24.33
2022-11-25T04:15:53.539Z,23.23
2022-11-25T04:18:22.837Z,23.83
2022-11-25T04:20:57.062Z,23.07
2022-11-25T04:23:25.869Z,23.07
2022-11-25T04:26:03.192Z,23.20
2022-11-25T04:28:36.854Z,23.40
2022-11-25T04:31:08.073Z,24.93
2022-11-25T04:33:39.169Z,23.03
2022-11-25T04:36:10.863Z,26.47
2022-11-25T04:38:39.591Z,25.23
2022-11-25T04:41:09.798Z,27.73
2022-11-25T04:43:43.041Z,24.93
2022-11-25T04:46:17.490Z,30.23
2022-11-25T04:48:49.851Z,29.23
2022-11-25T04:51:19.831Z,29.63
2022-11-25T04:53:51.840Z,28.87
2022-11-25T04:56:21.021Z,28.90
2022-11-25T04:59:09.952Z,28.00
2022-11-25T05:01:42.030Z,26.03
2022-11-25T05:04:29.921Z,24.63
2022-11-25T05:06:59.701Z,25.33
2022-11-25T05:09:28.500Z,24.63
2022-11-25T05:12:09.621Z,22.13
2022-11-25T05:14:38.231Z,23.70
2022-11-25T05:17:08.192Z,23.57
2022-11-25T05:19:38.344Z,24.17
2022-11-25T05:22:12.284Z,23.60
2022-11-25T05:24:41.950Z,23.30
2022-11-25T05:27:11.174Z,26.03
2022-11-25T05:29:40.071Z,25.23
2022-11-25T05:32:10.386Z,27.33
2022-11-25T05:34:39.300Z,30.17
2022-11-25T05:37:12.838Z,30.93
2022-11-25T05:39:45.530Z,29.07
2022-11-25T05:42:32.392Z,29.03
2022-11-25T05:45:05.684Z,29.97
2022-11-25T05:47:37.233Z,27.83
2022-11-25T05:50:08.228Z,30.20
2022-11-25T05:52:38.075Z,26.30
2022-11-25T05:55:07.363Z,27.07
2022-11-25T05:57:35.822Z,27.90
2022-11-25T06:00:11.268Z,25.67
2022-11-25T06:02:51.631Z,27.80
2022-11-25T06:05:21.252Z,27.33
2022-11-25T06:07:51.003Z,28.30
2022-11-25T06:10:20.436Z,25.43
2022-11-25T06:12:49.819Z,26.10
2022-11-25T06:15:18.141Z,26.13
2022-11-25T06:17:46.442Z,27.40
2022-11-25T06:20:20.564Z,26.37
2022-11-25T06:22:50.641Z,26.37
2022-11-25T06:25:24.353Z,28.67
2022-11-25T06:28:12.286Z,27.57
2022-11-25T06:30:41.241Z,25.60
2022-11-25T06:33:25.272Z,26.17
2022-11-25T06:35:53.800Z,29.73
2022-11-25T06:38:23.465Z,29.90
2022-11-25T06:40:53.992Z,26.93
2022-11-25T06:43:22.545Z,27.60
2022-11-25T06:45:50.862Z,26.70
2022-11-25T06:48:19.096Z,25.20
2022-11-25T06:50:56.072Z,26.67
2022-11-25T06:53:25.834Z,27.40
2022-11-25T06:56:04.482Z,27.83
2022-11-25T06:58:36.554Z,27.63
2022-11-25T07:01:07.495Z,26.57
2022-11-25T07:03:36.661Z,27.67
2022-11-25T07:06:05.870Z,28.93
2022-11-25T07:08:35.631Z,28.83
2022-11-25T07:11:05.484Z,28.73
2022-11-25T07:13:34.563Z,27.37
2022-11-25T07:16:04.027Z,27.53
2022-11-25T07:18:33.221Z,25.37
2022-11-25T07:21:07.162Z,26.90
2022-11-25T07:23:37.531Z,23.37
2022-11-25T07:26:07.701Z,23.97
2022-11-25T07:28:36.983Z,23.07
2022-11-25T07:31:39.877Z,25.80
2022-11-25T07:34:01.241Z,24.20
2022-11-25T07:36:30.861Z,29.40
2022-11-25T07:39:02.905Z,26.50
2022-11-25T07:41:31.720Z,27.37
2022-11-25T07:44:01.940Z,26.80
2022-11-25T07:46:35.364Z,25.70
2022-11-25T07:49:06.620Z,25.30
2022-11-25T07:51:36.903Z,21.70
2022-11-25T07:54:08.442Z,22.23
2022-11-25T07:56:38.499Z,20.90
2022-11-25T07:59:08.069Z,21.37
2022-11-25T08:01:36.648Z,21.80
2022-11-25T08:04:05.945Z,21.87
2022-11-25T08:06:34.337Z,22.00
2022-11-25T08:09:02.631Z,21.70
2022-11-25T08:11:33.402Z,22.43
2022-11-25T08:14:01.846Z,21.43
2022-11-25T08:16:32.234Z,22.33
2022-11-25T08:19:01.957Z,23.07
2022-11-25T08:21:30.382Z,24.27
2022-11-25T08:23:58.962Z,24.53
2022-11-25T08:26:30.270Z,23.40
2022-11-25T08:29:01.303Z,27.30
2022-11-25T08:31:31.620Z,25.53
2022-11-25T08:34:00.965Z,24.17
2022-11-25T08:36:30.791Z,25.13
2022-11-25T08:39:01.323Z,26.00
2022-11-25T08:41:31.643Z,25.63
2022-11-25T08:44:02.917Z,25.50
2022-11-25T08:46:34.349Z,28.47
2022-11-25T08:49:03.213Z,26.30
2022-11-25T08:51:33.899Z,27.20
2022-11-25T08:54:02.518Z,26.07
2022-11-25T08:56:31.025Z,24.43
2022-11-25T08:59:01.241Z,24.40
2022-11-25T09:01:30.232Z,22.47
2022-11-25T09:03:59.119Z,23.13
2022-11-25T09:06:29.283Z,23.60
2022-11-25T09:09:01.739Z,25.03
2022-11-25T09:11:30.756Z,26.10
2022-11-25T09:14:00.459Z,26.57
2022-11-25T09:16:29.031Z,24.40
2022-11-25T09:18:57.421Z,22.77
2022-11-25T09:21:25.872Z,21.63
2022-11-25T09:23:55.230Z,21.83
2022-11-25T09:26:25.626Z,22.93
2022-11-25T09:28:54.555Z,23.27
2022-11-25T09:31:24.817Z,21.00
2022-11-25T09:33:53.255Z,22.43
2022-11-25T09:36:23.727Z,20.70
2022-11-25T09:38:52.674Z,21.77
2022-11-25T09:41:54.121Z,21.77
2022-11-25T09:44:55.859Z,22.43
2022-11-25T09:47:34.815Z,20.37
2022-11-25T09:50:14.561Z,19.97
2022-11-25T09:52:53.173Z,19.63
2022-11-25T09:55:24.154Z,20.70
2022-11-25T09:58:07.480Z,18.93
2022-11-25T10:00:40.999Z,16.93
2022-11-25T10:03:18.323Z,19.00
2022-11-25T10:05:55.480Z,15.57
2022-11-25T10:08:29.164Z,16.47
2022-11-25T10:11:04.092Z,16.57
2022-11-25T10:13:45.920Z,15.80
2022-11-25T10:16:29.491Z,16.37
2022-11-25T10:19:02.372Z,16.27
2022-11-25T10:21:30.764Z,19.73
2022-11-25T10:23:59.154Z,14.60
2022-11-25T10:26:35.751Z,16.30
2022-11-25T10:29:23.052Z,18.07
2022-11-25T10:31:56.201Z,13.77
2022-11-25T10:34:36.864Z,11.83
2022-11-25T10:37:16.374Z,12.60
2022-11-25T10:39:44.689Z,12.70
2022-11-25T10:42:19.721Z,12.73
2022-11-25T10:44:48.061Z,12.63
2022-11-25T10:47:29.900Z,13.83
2022-11-25T10:50:14.370Z,14.37
2022-11-25T10:52:50.235Z,13.07
2022-11-25T10:55:20.651Z,13.30
2022-11-25T10:57:49.123Z,14.40
2022-11-25T11:00:33.239Z,14.73
2022-11-25T11:03:14.228Z,15.10
2022-11-25T11:05:49.068Z,15.27
2022-11-25T11:08:21.635Z,19.00
2022-11-25T11:11:11.722Z,16.63
2022-11-25T11:13:39.980Z,18.00
2022-11-25T11:16:27.106Z,17.40
2022-11-25T11:18:56.533Z,20.03
2022-11-25T11:21:32.338Z,19.83
2022-11-25T11:24:01.886Z,20.30
2022-11-25T11:26:33.190Z,21.27
2022-11-25T11:29:09.680Z,20.53
2022-11-25T11:31:46.127Z,20.40
2022-11-25T11:34:33.614Z,22.20
2022-11-25T11:37:19.703Z,21.63
2022-11-25T11:40:20.819Z,21.63
2022-11-25T11:43:02.141Z,18.90
2022-11-25T11:45:42.771Z,19.07
2022-11-25T11:48:20.563Z,18.10
2022-11-25T11:50:51.611Z,18.23
2022-11-25T11:53:31.746Z,17.33
2022-11-25T11:59:20.317Z,16.87
2022-11-25T12:02:02.409Z,16.80
2022-11-25T12:04:36.919Z,15.73
2022-11-25T12:07:12.269Z,15.30
2022-11-25T12:09:50.510Z,15.13
2022-11-25T12:12:20.431Z,15.50
2022-11-25T12:14:52.431Z,16.07
2022-11-25T12:17:28.234Z,16.83
2022-11-25T12:20:01.731Z,14.63
2022-11-25T12:22:33.649Z,16.33
2022-11-25T12:25:09.991Z,15.43
2022-11-25T12:27:41.902Z,14.97
2022-11-25T12:30:14.641Z,13.53
2022-11-25T12:32:54.513Z,14.10
2022-11-25T12:35:31.920Z,15.03
2022-11-25T12:38:06.269Z,14.83
2022-11-25T12:40:43.604Z,13.53
2022-11-25T12:43:25.262Z,15.03
2022-11-25T12:46:03.100Z,13.50
2022-11-25T12:48:32.182Z,12.53
2022-11-25T12:51:11.578Z,11.60
2022-11-25T12:53:46.089Z,12.80
2022-11-25T12:56:21.064Z,13.43
2022-11-25T12:59:02.358Z,11.97
2022-11-25T13:01:58.526Z,12.27
2022-11-25T13:05:18.496Z,15.03
2022-11-25T13:07:59.792Z,14.77
2022-11-25T13:10:47.790Z,14.57
2022-11-25T13:13:40.056Z,14.93
2022-11-25T13:16:10.597Z,15.23
2022-11-25T13:18:43.561Z,15.30
2022-11-25T13:21:13.882Z,15.07
2022-11-25T13:23:53.360Z,15.87
2022-11-25T13:26:49.602Z,14.73
2022-11-25T13:30:02.639Z,16.47
2022-11-25T13:32:43.424Z,17.27
2022-11-25T13:35:35.542Z,18.23
2022-11-25T13:38:09.934Z,18.23
2022-11-25T13:40:40.053Z,19.33
2022-11-25T13:43:22.980Z,17.87
2022-11-25T13:45:51.695Z,19.57
2022-11-25T13:48:24.302Z,20.13
2022-11-25T13:51:13.237Z,21.57
2022-11-25T13:53:41.994Z,20.10
2022-11-25T13:56:16.841Z,21.00
2022-11-25T13:59:19.865Z,20.70
2022-11-25T14:01:55.299Z,22.27
2022-11-25T14:04:42.605Z,20.80
2022-11-25T14:07:21.983Z,21.07
2022-11-25T14:10:10.590Z,22.20
2022-11-25T14:13:00.251Z,20.87
2022-11-25T14:15:48.879Z,20.97
2022-11-25T14:21:56.050Z,20.57
2022-11-25T14:24:31.700Z,20.90
2022-11-25T14:27:01.113Z,20.63
2022-11-25T14:29:36.973Z,21.83
2022-11-25T14:32:11.773Z,20.30
2022-11-25T14:34:43.591Z,21.30
2022-11-25T14:37:18.301Z,22.27
2022-11-25T14:39:53.586Z,20.70
2022-11-25T14:42:25.188Z,21.00
2022-11-25T14:44:55.866Z,21.47
2022-11-25T14:47:25.684Z,20.90
2022-11-25T14:50:18.863Z,20.37
2022-11-25T14:52:47.814Z,20.90
2022-11-25T14:55:27.919Z,21.50
2022-11-25T14:57:57.116Z,20.93
2022-11-25T15:00:27.495Z,21.90
2022-11-25T15:02:58.950Z,22.53
2022-11-25T15:05:31.822Z,22.87
2022-11-25T15:08:04.869Z,23.33
2022-11-25T15:10:36.619Z,22.63
2022-11-25T15:13:13.188Z,22.40
2022-11-25T15:15:41.839Z,21.80
2022-11-25T15:18:20.183Z,22.97
2022-11-25T15:20:51.289Z,23.90
2022-11-25T15:23:27.155Z,23.60
2022-11-25T15:25:57.814Z,24.13
2022-11-25T15:28:26.281Z,26.43
2022-11-25T15:31:00.282Z,25.03
2022-11-25T15:33:30.801Z,24.73
2022-11-25T15:35:59.135Z,26.47
2022-11-25T15:38:41.584Z,25.57
2022-11-25T15:41:33.540Z,26.00
2022-11-25T15:44:03.820Z,25.93
2022-11-25T15:46:34.834Z,28.47
2022-11-25T15:49:06.243Z,31.20
2022-11-25T15:51:39.239Z,30.00
2022-11-25T15:54:18.255Z,30.40
2022-11-25T15:56:50.243Z,30.50
2022-11-25T15:59:39.250Z,27.30
2022-11-25T16:02:36.172Z,26.83
2022-11-25T16:05:17.290Z,26.10
2022-11-25T16:08:00.322Z,25.57
2022-11-25T16:10:32.179Z,37.37
2022-11-25T16:13:25.971Z,40.03
2022-11-25T16:15:57.910Z,35.33
2022-11-25T16:18:40.238Z,36.63
2022-11-25T16:21:12.380Z,36.47
2022-11-25T16:23:44.035Z,35.50
2022-11-25T16:26:20.247Z,33.50
2022-11-25T16:28:55.086Z,29.17
2022-11-25T16:31:24.225Z,29.47
2022-11-25T16:33:55.347Z,26.77
2022-11-25T16:36:23.724Z,26.97
2022-11-25T16:38:54.663Z,26.83
2022-11-25T16:41:26.930Z,27.13
2022-11-25T16:43:57.175Z,31.37
2022-11-25T16:46:28.761Z,31.63
2022-11-25T16:48:57.452Z,36.03
2022-11-25T16:51:26.334Z,34.87
2022-11-25T16:53:54.687Z,37.70
2022-11-25T16:56:28.721Z,37.60
2022-11-25T16:58:58.298Z,36.77
2022-11-25T17:01:29.185Z,33.93
2022-11-25T17:03:58.243Z,32.83
2022-11-25T17:06:28.522Z,31.07
2022-11-25T17:08:56.842Z,32.50
2022-11-25T17:11:30.297Z,35.23
2022-11-25T17:14:00.563Z,35.40
2022-11-25T17:16:29.940Z,33.37
2022-11-25T17:19:00.632Z,32.23
2022-11-25T17:21:29.164Z,32.63
2022-11-25T17:24:02.677Z,34.17
2022-11-25T17:26:38.128Z,34.03
2022-11-25T17:29:09.792Z,37.13
2022-11-25T17:31:40.005Z,37.53
2022-11-25T17:34:08.410Z,36.37
2022-11-25T17:36:36.734Z,36.77
2022-11-25T17:39:05.080Z,34.53
2022-11-25T17:41:39.799Z,34.60
2022-11-25T17:44:17.474Z,34.53
2022-11-25T17:46:45.770Z,34.63
2022-11-25T17:49:16.361Z,45.27
2022-11-25T17:51:44.884Z,38.13
2022-11-25T17:54:13.712Z,41.50
2022-11-25T17:56:47.776Z,35.03
2022-11-25T17:59:26.512Z,33.17
2022-11-25T18:01:56.399Z,30.83
2022-11-25T18:04:26.699Z,29.43
2022-11-25T18:06:55.272Z,28.90
2022-11-25T18:09:24.137Z,27.03
2022-11-25T18:11:57.934Z,27.03
2022-11-25T18:14:28.490Z,27.50
2022-11-25T18:16:58.614Z,25.03
2022-11-25T18:19:27.095Z,25.37
2022-11-25T18:21:59.965Z,24.77
2022-11-25T18:24:28.339Z,24.60
2022-11-25T18:26:58.613Z,23.63
2022-11-25T18:29:28.332Z,24.13
2022-11-25T18:31:59.509Z,25.63
2022-11-25T18:34:28.004Z,26.37
2022-11-25T18:36:56.363Z,25.97
2022-11-25T18:39:24.705Z,25.07
2022-11-25T18:41:58.138Z,25.90
2022-11-25T18:44:30.248Z,29.30
2022-11-25T18:46:58.571Z,28.33
2022-11-25T18:49:26.871Z,28.47
2022-11-25T18:51:55.122Z,27.33
2022-11-25T18:54:23.382Z,31.00
2022-11-25T18:56:52.930Z,31.80
2022-11-25T18:59:27.771Z,31.90
2022-11-25T19:01:57.479Z,31.47
2022-11-25T19:04:25.951Z,30.13
2022-11-25T19:06:54.222Z,27.33
2022-11-25T19:09:22.673Z,28.13
2022-11-25T19:11:54.012Z,32.87
2022-11-25T19:14:30.324Z,30.97
2022-11-25T19:17:02.949Z,30.37
2022-11-25T19:19:31.495Z,27.80
2022-11-25T19:22:01.619Z,27.87
2022-11-25T19:24:30.301Z,30.40
2022-11-25T19:26:58.942Z,29.30
2022-11-25T19:29:36.493Z,34.23
2022-11-25T19:32:20.141Z,39.50
2022-11-25T19:34:52.092Z,40.70
2022-11-25T19:37:23.162Z,35.73
2022-11-25T19:39:52.795Z,31.87
2022-11-25T19:42:21.184Z,31.13
2022-11-25T19:44:49.561Z,31.00
2022-11-25T19:47:22.105Z,29.87
2022-11-25T19:49:51.794Z,29.27
2022-11-25T19:52:22.627Z,28.30
2022-11-25T19:54:51.251Z,29.97
2022-11-25T19:57:21.808Z,47.63
2022-11-25T19:59:50.599Z,42.10
2022-11-25T20:02:22.383Z,49.20
2022-11-25T20:04:53.711Z,40.90
2022-11-25T20:07:23.031Z,38.03
2022-11-25T20:09:52.301Z,34.17
2022-11-25T20:12:23.353Z,32.20
2022-11-25T20:14:52.645Z,30.60
2022-11-25T20:17:28.187Z,31.60
2022-11-25T20:20:00.074Z,27.97
2022-11-25T20:22:34.060Z,26.80
2022-11-25T20:25:06.200Z,25.73
2022-11-25T20:27:35.093Z,26.90
2022-11-25T20:30:03.451Z,29.80
2022-11-25T20:32:34.141Z,28.63
2022-11-25T20:35:02.499Z,31.83
2022-11-25T20:37:40.401Z,32.53
2022-11-25T20:40:15.771Z,32.13
2022-11-25T20:42:44.365Z,42.27
2022-11-25T20:45:16.435Z,36.60
2022-11-25T20:47:49.059Z,36.37
2022-11-25T20:50:17.862Z,33.57
2022-11-25T20:52:46.892Z,38.20
2022-11-25T20:55:18.392Z,35.70
2022-11-25T20:57:47.119Z,31.97
2022-11-25T21:00:18.441Z,28.87
2022-11-25T21:02:48.284Z,37.73
2022-11-25T21:05:18.819Z,33.47
2022-11-25T21:07:49.714Z,36.47
2022-11-25T21:10:22.548Z,35.93
2022-11-25T21:12:51.261Z,44.13
2022-11-25T21:15:22.021Z,43.40
2022-11-25T21:17:52.194Z,40.77
2022-11-25T21:20:21.205Z,40.63
2022-11-25T21:22:55.176Z,37.10
2022-11-25T21:25:24.173Z,34.03
2022-11-25T21:27:53.339Z,38.10
2022-11-25T21:30:23.643Z,35.97
2022-11-25T21:32:56.289Z,36.47
2022-11-25T21:35:29.979Z,35.80
2022-11-25T21:37:58.883Z,35.30
2022-11-25T21:40:37.612Z,34.60
2022-11-25T21:43:07.549Z,35.13
2022-11-25T21:45:35.857Z,30.00
2022-11-25T21:48:10.809Z,31.80
2022-11-25T21:50:39.031Z,34.50
2022-11-25T21:53:07.482Z,32.93
2022-11-25T21:55:35.918Z,32.03
2022-11-25T21:58:04.262Z,31.47
2022-11-25T22:00:32.666Z,30.13
2022-11-25T22:03:01.110Z,31.53
2022-11-25T22:05:30.760Z,31.53
2022-11-25T22:08:00.067Z,32.07
2022-11-25T22:10:28.470Z,31.93
2022-11-25T22:12:56.893Z,30.87
2022-11-25T22:15:25.519Z,28.57
2022-11-25T22:17:57.532Z,30.67
2022-11-25T22:20:29.065Z,30.27
2022-11-25T22:22:58.812Z,33.53
2022-11-25T22:25:29.840Z,37.50
2022-11-25T22:27:58.344Z,30.33
2022-11-25T22:30:26.724Z,28.67
2022-11-25T22:33:01.550Z,27.67
2022-11-25T22:35:30.051Z,29.07
2022-11-25T22:37:59.723Z,28.27
2022-11-25T22:40:28.064Z,29.87
2022-11-25T22:42:57.498Z,25.77
2022-11-25T22:45:31.139Z,26.63
2022-11-25T22:48:00.623Z,26.63
2022-11-25T22:50:31.442Z,24.57
2022-11-25T22:53:01.971Z,24.00
2022-11-25T22:55:31.862Z,23.57
2022-11-25T22:58:04.123Z,24.17
2022-11-25T23:00:35.439Z,27.13
2022-11-25T23:03:06.636Z,27.30
2022-11-25T23:05:36.401Z,27.03
2022-11-25T23:08:13.515Z,29.97
2022-11-25T23:10:42.193Z,28.47
2022-11-25T23:13:10.523Z,29.70
2022-11-25T23:15:39.344Z,34.47
2022-11-25T23:18:15.870Z,34.80
2022-11-25T23:20:44.306Z,33.07
2022-11-25T23:23:17.638Z,33.00
2022-11-25T23:25:46.186Z,33.10
2022-11-25T23:28:14.519Z,34.00
2022-11-25T23:30:46.679Z,31.77
2022-11-25T23:33:20.458Z,32.07
2022-11-25T23:35:48.986Z,28.63
2022-11-25T23:38:23.653Z,27.40
2022-11-25T23:40:51.982Z,28.67
2022-11-25T23:43:20.422Z,27.83
2022-11-25T23:45:52.542Z,29.87
2022-11-25T23:48:23.880Z,29.97
2022-11-25T23:50:54.494Z,30.87
2022-11-25T23:53:28.957Z,36.93
2022-11-25T23:55:57.258Z,35.60
2022-11-25T23:58:25.512Z,33.43
